sensor_id;sensor_type;location;lat;lon;timestamp;temperature;humidity
76897;SHT30;65856;52.178;21.176;2023-02-08T00:00:40;2.04;73.35
76897;SHT30;65856;52.178;21.176;2023-02-08T00:03:11;2.04;73.48
76897;SHT30;65856;52.178;21.176;2023-02-08T00:05:42;2.02;73.55
76897;SHT30;65856;52.178;21.176;2023-02-08T00:08:13;2.02;73.56
76897;SHT30;65856;52.178;21.176;2023-02-08T00:10:43;2.05;73.50
76897;SHT30;65856;52.178;21.176;2023-02-08T00:13:14;2.08;73.50
76897;SHT30;65856;52.178;21.176;2023-02-08T00:15:45;2.12;73.48
76897;SHT30;65856;52.178;21.176;2023-02-08T00:18:18;2.11;73.42
76897;SHT30;65856;52.178;21.176;2023-02-08T00:20:49;2.10;73.40
76897;SHT30;65856;52.178;21.176;2023-02-08T00:23:20;2.09;73.36
76897;SHT30;65856;52.178;21.176;2023-02-08T00:25:51;2.07;73.40
76897;SHT30;65856;52.178;21.176;2023-02-08T00:28:22;2.04;73.48
76897;SHT30;65856;52.178;21.176;2023-02-08T00:30:52;2.01;73.51
76897;SHT30;65856;52.178;21.176;2023-02-08T00:33:23;2.00;73.59
76897;SHT30;65856;52.178;21.176;2023-02-08T00:35:58;1.98;73.67
76897;SHT30;65856;52.178;21.176;2023-02-08T00:38:30;1.99;73.66
76897;SHT30;65856;52.178;21.176;2023-02-08T00:41:01;2.00;73.58
76897;SHT30;65856;52.178;21.176;2023-02-08T00:43:32;2.03;73.45
76897;SHT30;65856;52.178;21.176;2023-02-08T00:46:03;2.08;73.38
76897;SHT30;65856;52.178;21.176;2023-02-08T00:48:34;2.11;73.29
76897;SHT30;65856;52.178;21.176;2023-02-08T00:51:06;2.11;73.25
76897;SHT30;65856;52.178;21.176;2023-02-08T00:53:39;2.13;73.21
76897;SHT30;65856;52.178;21.176;2023-02-08T00:56:12;2.14;73.12
76897;SHT30;65856;52.178;21.176;2023-02-08T00:58:43;2.13;73.17
76897;SHT30;65856;52.178;21.176;2023-02-08T01:01:14;2.13;73.17
76897;SHT30;65856;52.178;21.176;2023-02-08T01:03:44;2.08;73.33
76897;SHT30;65856;52.178;21.176;2023-02-08T01:06:15;2.05;73.44
76897;SHT30;65856;52.178;21.176;2023-02-08T01:08:46;2.03;73.46
76897;SHT30;65856;52.178;21.176;2023-02-08T01:11:18;2.06;73.46
76897;SHT30;65856;52.178;21.176;2023-02-08T01:13:51;2.10;73.40
76897;SHT30;65856;52.178;21.176;2023-02-08T01:16:24;2.09;73.45
76897;SHT30;65856;52.178;21.176;2023-02-08T01:18:57;2.10;73.46
76897;SHT30;65856;52.178;21.176;2023-02-08T01:21:30;2.15;73.37
76897;SHT30;65856;52.178;21.176;2023-02-08T01:24:03;2.14;73.25
76897;SHT30;65856;52.178;21.176;2023-02-08T01:26:35;2.11;73.19
76897;SHT30;65856;52.178;21.176;2023-02-08T01:29:05;2.05;73.24
76897;SHT30;65856;52.178;21.176;2023-02-08T01:31:38;2.05;73.33
76897;SHT30;65856;52.178;21.176;2023-02-08T01:34:10;2.04;73.40
76897;SHT30;65856;52.178;21.176;2023-02-08T01:36:41;2.01;73.45
76897;SHT30;65856;52.178;21.176;2023-02-08T01:39:11;1.96;73.57
76897;SHT30;65856;52.178;21.176;2023-02-08T01:41:43;1.96;73.54
76897;SHT30;65856;52.178;21.176;2023-02-08T01:47:36;2.00;73.44
76897;SHT30;65856;52.178;21.176;2023-02-08T01:50:07;2.02;73.51
76897;SHT30;65856;52.178;21.176;2023-02-08T01:52:39;2.01;73.54
76897;SHT30;65856;52.178;21.176;2023-02-08T01:55:12;2.02;73.58
76897;SHT30;65856;52.178;21.176;2023-02-08T01:57:46;2.03;73.50
76897;SHT30;65856;52.178;21.176;2023-02-08T02:00:22;2.00;73.44
76897;SHT30;65856;52.178;21.176;2023-02-08T02:04:29;1.95;73.51
76897;SHT30;65856;52.178;21.176;2023-02-08T02:07:01;1.95;73.56
76897;SHT30;65856;52.178;21.176;2023-02-08T02:09:35;1.89;73.50
76897;SHT30;65856;52.178;21.176;2023-02-08T02:12:08;1.86;73.64
76897;SHT30;65856;52.178;21.176;2023-02-08T02:14:39;1.88;73.59
76897;SHT30;65856;52.178;21.176;2023-02-08T02:17:11;1.84;73.50
76897;SHT30;65856;52.178;21.176;2023-02-08T02:19:46;1.81;73.58
76897;SHT30;65856;52.178;21.176;2023-02-08T02:25:48;1.73;73.73
76897;SHT30;65856;52.178;21.176;2023-02-08T02:28:46;1.73;73.82
76897;SHT30;65856;52.178;21.176;2023-02-08T02:34:38;1.77;73.80
76897;SHT30;65856;52.178;21.176;2023-02-08T02:37:18;1.75;73.87
76897;SHT30;65856;52.178;21.176;2023-02-08T02:40:06;1.67;73.94
76897;SHT30;65856;52.178;21.176;2023-02-08T02:42:48;1.62;74.17
76897;SHT30;65856;52.178;21.176;2023-02-08T02:45:45;1.58;74.29
76897;SHT30;65856;52.178;21.176;2023-02-08T02:48:24;1.59;74.33
76897;SHT30;65856;52.178;21.176;2023-02-08T02:51:07;1.65;74.35
76897;SHT30;65856;52.178;21.176;2023-02-08T02:53:42;1.73;74.34
76897;SHT30;65856;52.178;21.176;2023-02-08T02:56:22;1.81;74.17
76897;SHT30;65856;52.178;21.176;2023-02-08T02:59:00;1.85;74.03
76897;SHT30;65856;52.178;21.176;2023-02-08T03:01:35;1.86;74.02
76897;SHT30;65856;52.178;21.176;2023-02-08T03:04:12;1.85;74.01
76897;SHT30;65856;52.178;21.176;2023-02-08T03:06:51;1.80;74.11
76897;SHT30;65856;52.178;21.176;2023-02-08T03:09:37;1.75;74.26
76897;SHT30;65856;52.178;21.176;2023-02-08T03:12:32;1.70;74.37
76897;SHT30;65856;52.178;21.176;2023-02-08T03:15:19;1.66;74.40
76897;SHT30;65856;52.178;21.176;2023-02-08T03:18:07;1.65;74.41
76897;SHT30;65856;52.178;21.176;2023-02-08T03:20:52;1.66;74.49
76897;SHT30;65856;52.178;21.176;2023-02-08T03:23:34;1.70;74.46
76897;SHT30;65856;52.178;21.176;2023-02-08T03:26:14;1.71;74.46
76897;SHT30;65856;52.178;21.176;2023-02-08T03:28:52;1.73;74.30
76897;SHT30;65856;52.178;21.176;2023-02-08T03:31:31;1.76;74.21
76897;SHT30;65856;52.178;21.176;2023-02-08T03:34:09;1.83;74.11
76897;SHT30;65856;52.178;21.176;2023-02-08T03:36:46;1.84;74.10
76897;SHT30;65856;52.178;21.176;2023-02-08T03:39:24;1.82;74.15
76897;SHT30;65856;52.178;21.176;2023-02-08T03:42:02;1.82;74.13
76897;SHT30;65856;52.178;21.176;2023-02-08T03:44:41;1.80;74.10
76897;SHT30;65856;52.178;21.176;2023-02-08T03:47:18;1.75;74.11
76897;SHT30;65856;52.178;21.176;2023-02-08T03:49:55;1.70;74.23
76897;SHT30;65856;52.178;21.176;2023-02-08T03:52:31;1.65;74.35
76897;SHT30;65856;52.178;21.176;2023-02-08T03:55:03;1.61;74.41
76897;SHT30;65856;52.178;21.176;2023-02-08T03:57:42;1.62;74.50
76897;SHT30;65856;52.178;21.176;2023-02-08T04:00:19;1.62;74.58
76897;SHT30;65856;52.178;21.176;2023-02-08T04:02:53;1.64;74.70
76897;SHT30;65856;52.178;21.176;2023-02-08T04:05:28;1.69;74.67
76897;SHT30;65856;52.178;21.176;2023-02-08T04:07:59;1.73;74.53
76897;SHT30;65856;52.178;21.176;2023-02-08T04:10:30;1.77;74.44
76897;SHT30;65856;52.178;21.176;2023-02-08T04:13:00;1.81;74.38
76897;SHT30;65856;52.178;21.176;2023-02-08T04:15:31;1.79;74.40
76897;SHT30;65856;52.178;21.176;2023-02-08T04:18:01;1.76;74.43
76897;SHT30;65856;52.178;21.176;2023-02-08T04:20:32;1.73;74.50
76897;SHT30;65856;52.178;21.176;2023-02-08T04:23:03;1.69;74.53
76897;SHT30;65856;52.178;21.176;2023-02-08T04:25:33;1.66;74.59
76897;SHT30;65856;52.178;21.176;2023-02-08T04:28:04;1.67;74.58
76897;SHT30;65856;52.178;21.176;2023-02-08T04:30:35;1.67;74.51
76897;SHT30;65856;52.178;21.176;2023-02-08T04:33:05;1.68;74.60
76897;SHT30;65856;52.178;21.176;2023-02-08T04:35:38;1.70;74.60
76897;SHT30;65856;52.178;21.176;2023-02-08T04:38:08;1.75;74.56
76897;SHT30;65856;52.178;21.176;2023-02-08T04:40:39;1.80;74.47
76897;SHT30;65856;52.178;21.176;2023-02-08T04:43:09;1.80;74.44
76897;SHT30;65856;52.178;21.176;2023-02-08T04:45:40;1.79;74.37
76897;SHT30;65856;52.178;21.176;2023-02-08T04:48:10;1.78;74.29
76897;SHT30;65856;52.178;21.176;2023-02-08T04:50:41;1.75;74.30
76897;SHT30;65856;52.178;21.176;2023-02-08T04:53:12;1.73;74.35
76897;SHT30;65856;52.178;21.176;2023-02-08T04:55:43;1.72;74.52
76897;SHT30;65856;52.178;21.176;2023-02-08T04:58:13;1.70;74.60
76897;SHT30;65856;52.178;21.176;2023-02-08T05:00:44;1.71;74.54
76897;SHT30;65856;52.178;21.176;2023-02-08T05:03:15;1.75;74.46
76897;SHT30;65856;52.178;21.176;2023-02-08T05:05:45;1.80;74.28
76897;SHT30;65856;52.178;21.176;2023-02-08T05:08:24;1.85;74.25
76897;SHT30;65856;52.178;21.176;2023-02-08T05:10:55;1.89;74.14
76897;SHT30;65856;52.178;21.176;2023-02-08T05:13:25;1.90;74.04
76897;SHT30;65856;52.178;21.176;2023-02-08T05:15:56;1.89;74.00
76897;SHT30;65856;52.178;21.176;2023-02-08T05:18:26;1.90;74.00
76897;SHT30;65856;52.178;21.176;2023-02-08T05:20:57;1.90;74.00
76897;SHT30;65856;52.178;21.176;2023-02-08T05:23:29;1.87;74.08
76897;SHT30;65856;52.178;21.176;2023-02-08T05:26:03;1.85;74.31
76897;SHT30;65856;52.178;21.176;2023-02-08T05:28:36;1.79;74.44
76897;SHT30;65856;52.178;21.176;2023-02-08T05:31:11;1.76;74.54
76897;SHT30;65856;52.178;21.176;2023-02-08T05:33:44;1.76;74.50
76897;SHT30;65856;52.178;21.176;2023-02-08T05:36:17;1.74;74.32
76897;SHT30;65856;52.178;21.176;2023-02-08T05:38:48;1.75;74.27
76897;SHT30;65856;52.178;21.176;2023-02-08T05:41:19;1.79;74.19
76897;SHT30;65856;52.178;21.176;2023-02-08T05:43:50;1.81;74.12
76897;SHT30;65856;52.178;21.176;2023-02-08T05:46:20;1.83;74.06
76897;SHT30;65856;52.178;21.176;2023-02-08T05:48:51;1.83;73.99
76897;SHT30;65856;52.178;21.176;2023-02-08T05:51:21;1.81;74.00
76897;SHT30;65856;52.178;21.176;2023-02-08T05:53:52;1.77;74.00
76897;SHT30;65856;52.178;21.176;2023-02-08T05:56:22;1.77;74.00
76897;SHT30;65856;52.178;21.176;2023-02-08T05:58:53;1.75;74.00
76897;SHT30;65856;52.178;21.176;2023-02-08T06:01:26;1.74;74.08
76897;SHT30;65856;52.178;21.176;2023-02-08T06:03:57;1.72;74.11
76897;SHT30;65856;52.178;21.176;2023-02-08T06:06:27;1.70;74.14
76897;SHT30;65856;52.178;21.176;2023-02-08T06:08:58;1.70;74.16
76897;SHT30;65856;52.178;21.176;2023-02-08T06:11:29;1.69;74.19
76897;SHT30;65856;52.178;21.176;2023-02-08T06:14:01;1.70;74.20
76897;SHT30;65856;52.178;21.176;2023-02-08T06:16:32;1.72;74.21
76897;SHT30;65856;52.178;21.176;2023-02-08T06:19:03;1.73;74.21
76897;SHT30;65856;52.178;21.176;2023-02-08T06:21:33;1.76;74.21
76897;SHT30;65856;52.178;21.176;2023-02-08T06:24:04;1.79;74.18
76897;SHT30;65856;52.178;21.176;2023-02-08T06:26:36;1.81;74.12
76897;SHT30;65856;52.178;21.176;2023-02-08T06:29:07;1.78;74.09
76897;SHT30;65856;52.178;21.176;2023-02-08T06:31:37;1.77;74.11
76897;SHT30;65856;52.178;21.176;2023-02-08T06:34:08;1.76;74.10
76897;SHT30;65856;52.178;21.176;2023-02-08T06:36:39;1.73;74.10
76897;SHT30;65856;52.178;21.176;2023-02-08T06:39:10;1.71;74.15
76897;SHT30;65856;52.178;21.176;2023-02-08T06:41:41;1.69;74.20
76897;SHT30;65856;52.178;21.176;2023-02-08T06:44:11;1.68;74.22
76897;SHT30;65856;52.178;21.176;2023-02-08T06:46:42;1.68;74.20
76897;SHT30;65856;52.178;21.176;2023-02-08T06:49:12;1.72;74.19
76897;SHT30;65856;52.178;21.176;2023-02-08T06:51:43;1.75;74.11
76897;SHT30;65856;52.178;21.176;2023-02-08T06:54:14;1.76;74.04
76897;SHT30;65856;52.178;21.176;2023-02-08T06:56:44;1.78;74.00
76897;SHT30;65856;52.178;21.176;2023-02-08T06:59:15;1.83;74.12
76897;SHT30;65856;52.178;21.176;2023-02-08T07:01:45;1.90;73.92
76897;SHT30;65856;52.178;21.176;2023-02-08T07:04:16;1.90;73.77
76897;SHT30;65856;52.178;21.176;2023-02-08T07:06:47;1.87;73.70
76897;SHT30;65856;52.178;21.176;2023-02-08T07:09:18;1.86;73.70
76897;SHT30;65856;52.178;21.176;2023-02-08T07:11:49;1.83;73.69
76897;SHT30;65856;52.178;21.176;2023-02-08T07:14:19;1.83;73.68
76897;SHT30;65856;52.178;21.176;2023-02-08T07:16:50;1.80;73.75
76897;SHT30;65856;52.178;21.176;2023-02-08T07:19:20;1.80;73.79
76897;SHT30;65856;52.178;21.176;2023-02-08T07:21:51;1.79;73.76
76897;SHT30;65856;52.178;21.176;2023-02-08T07:24:22;1.83;73.74
76897;SHT30;65856;52.178;21.176;2023-02-08T07:26:52;1.85;73.64
76897;SHT30;65856;52.178;21.176;2023-02-08T07:29:23;1.85;73.55
76897;SHT30;65856;52.178;21.176;2023-02-08T07:31:54;1.88;73.60
76897;SHT30;65856;52.178;21.176;2023-02-08T07:34:27;1.92;73.54
76897;SHT30;65856;52.178;21.176;2023-02-08T07:36:59;1.95;73.41
76897;SHT30;65856;52.178;21.176;2023-02-08T07:39:30;1.97;73.40
76897;SHT30;65856;52.178;21.176;2023-02-08T07:42:00;1.99;73.29
76897;SHT30;65856;52.178;21.176;2023-02-08T07:44:32;1.95;73.21
76897;SHT30;65856;52.178;21.176;2023-02-08T07:47:04;1.89;73.26
76897;SHT30;65856;52.178;21.176;2023-02-08T07:49:36;1.84;73.39
76897;SHT30;65856;52.178;21.176;2023-02-08T07:52:06;1.84;73.50
76897;SHT30;65856;52.178;21.176;2023-02-08T07:54:37;1.81;73.59
76897;SHT30;65856;52.178;21.176;2023-02-08T07:57:07;1.80;73.64
76897;SHT30;65856;52.178;21.176;2023-02-08T07:59:38;1.80;73.70
76897;SHT30;65856;52.178;21.176;2023-02-08T08:02:08;1.84;73.70
76897;SHT30;65856;52.178;21.176;2023-02-08T08:04:40;1.87;73.62
76897;SHT30;65856;52.178;21.176;2023-02-08T08:07:10;1.88;73.61
76897;SHT30;65856;52.178;21.176;2023-02-08T08:09:41;1.94;73.60
76897;SHT30;65856;52.178;21.176;2023-02-08T08:12:11;2.00;73.55
76897;SHT30;65856;52.178;21.176;2023-02-08T08:14:41;2.01;73.42
76897;SHT30;65856;52.178;21.176;2023-02-08T08:17:12;2.01;73.40
76897;SHT30;65856;52.178;21.176;2023-02-08T08:19:42;2.01;73.38
76897;SHT30;65856;52.178;21.176;2023-02-08T08:22:13;2.00;73.40
76897;SHT30;65856;52.178;21.176;2023-02-08T08:24:44;2.01;73.38
76897;SHT30;65856;52.178;21.176;2023-02-08T08:27:14;2.00;73.40
76897;SHT30;65856;52.178;21.176;2023-02-08T08:29:45;2.00;73.50
76897;SHT30;65856;52.178;21.176;2023-02-08T08:32:15;1.97;73.46
76897;SHT30;65856;52.178;21.176;2023-02-08T08:34:46;1.97;73.60
76897;SHT30;65856;52.178;21.176;2023-02-08T08:37:16;2.02;73.60
76897;SHT30;65856;52.178;21.176;2023-02-08T08:39:47;2.06;73.49
76897;SHT30;65856;52.178;21.176;2023-02-08T08:42:17;2.08;73.35
76897;SHT30;65856;52.178;21.176;2023-02-08T08:44:48;2.07;73.28
76897;SHT30;65856;52.178;21.176;2023-02-08T08:47:18;2.04;73.27
76897;SHT30;65856;52.178;21.176;2023-02-08T08:49:49;2.01;73.26
76897;SHT30;65856;52.178;21.176;2023-02-08T08:52:19;1.98;73.32
76897;SHT30;65856;52.178;21.176;2023-02-08T08:54:50;2.01;73.43
76897;SHT30;65856;52.178;21.176;2023-02-08T08:57:21;2.09;73.52
76897;SHT30;65856;52.178;21.176;2023-02-08T08:59:51;2.15;73.40
76897;SHT30;65856;52.178;21.176;2023-02-08T09:02:22;2.16;73.23
76897;SHT30;65856;52.178;21.176;2023-02-08T09:04:52;2.14;73.15
76897;SHT30;65856;52.178;21.176;2023-02-08T09:07:25;2.13;73.18
76897;SHT30;65856;52.178;21.176;2023-02-08T09:09:55;2.15;73.18
76897;SHT30;65856;52.178;21.176;2023-02-08T09:12:26;2.22;73.07
76897;SHT30;65856;52.178;21.176;2023-02-08T09:14:57;2.27;72.84
76897;SHT30;65856;52.178;21.176;2023-02-08T09:17:28;2.31;72.79
76897;SHT30;65856;52.178;21.176;2023-02-08T09:19:58;2.32;72.71
76897;SHT30;65856;52.178;21.176;2023-02-08T09:22:29;2.34;72.70
76897;SHT30;65856;52.178;21.176;2023-02-08T09:24:59;2.38;72.82
76897;SHT30;65856;52.178;21.176;2023-02-08T09:27:30;2.45;72.74
76897;SHT30;65856;52.178;21.176;2023-02-08T09:30:01;2.50;72.39
76897;SHT30;65856;52.178;21.176;2023-02-08T09:32:32;2.51;72.19
76897;SHT30;65856;52.178;21.176;2023-02-08T09:35:05;2.55;72.24
76897;SHT30;65856;52.178;21.176;2023-02-08T09:37:38;2.56;72.05
76897;SHT30;65856;52.178;21.176;2023-02-08T09:40:12;2.55;71.86
76897;SHT30;65856;52.178;21.176;2023-02-08T09:42:58;2.56;71.79
76897;SHT30;65856;52.178;21.176;2023-02-08T09:45:39;2.55;71.43
76897;SHT30;65856;52.178;21.176;2023-02-08T09:48:22;2.54;71.37
76897;SHT30;65856;52.178;21.176;2023-02-08T09:50:58;2.57;71.33
76897;SHT30;65856;52.178;21.176;2023-02-08T09:53:38;2.60;70.98
76897;SHT30;65856;52.178;21.176;2023-02-08T09:56:27;2.65;70.75
76897;SHT30;65856;52.178;21.176;2023-02-08T09:59:02;2.73;70.70
76897;SHT30;65856;52.178;21.176;2023-02-08T10:01:38;2.81;70.47
76897;SHT30;65856;52.178;21.176;2023-02-08T10:04:11;2.82;70.26
76897;SHT30;65856;52.178;21.176;2023-02-08T10:06:50;2.80;69.89
76897;SHT30;65856;52.178;21.176;2023-02-08T10:09:21;2.78;68.88
76897;SHT30;65856;52.178;21.176;2023-02-08T10:11:57;2.75;68.67
76897;SHT30;65856;52.178;21.176;2023-02-08T10:14:45;2.74;68.88
76897;SHT30;65856;52.178;21.176;2023-02-08T10:17:33;2.76;68.52
76897;SHT30;65856;52.178;21.176;2023-02-08T10:20:26;2.77;67.75
76897;SHT30;65856;52.178;21.176;2023-02-08T10:23:18;2.76;67.12
76897;SHT30;65856;52.178;21.176;2023-02-08T10:26:07;2.75;66.70
76897;SHT30;65856;52.178;21.176;2023-02-08T10:28:55;2.68;66.19
76897;SHT30;65856;52.178;21.176;2023-02-08T10:31:53;2.59;66.41
76897;SHT30;65856;52.178;21.176;2023-02-08T10:34:41;2.58;66.33
76897;SHT30;65856;52.178;21.176;2023-02-08T10:37:16;2.58;65.00
76897;SHT30;65856;52.178;21.176;2023-02-08T10:39:52;2.58;64.64
76897;SHT30;65856;52.178;21.176;2023-02-08T10:42:27;2.61;64.41
76897;SHT30;65856;52.178;21.176;2023-02-08T10:45:03;2.60;63.90
76897;SHT30;65856;52.178;21.176;2023-02-08T10:47:46;2.54;63.36
76897;SHT30;65856;52.178;21.176;2023-02-08T10:50:21;2.54;63.82
76897;SHT30;65856;52.178;21.176;2023-02-08T10:53:01;2.57;63.94
76897;SHT30;65856;52.178;21.176;2023-02-08T10:55:34;2.56;63.62
76897;SHT30;65856;52.178;21.176;2023-02-08T10:58:12;2.54;63.93
76897;SHT30;65856;52.178;21.176;2023-02-08T11:00:45;2.54;64.00
76897;SHT30;65856;52.178;21.176;2023-02-08T11:03:20;2.54;64.04
76897;SHT30;65856;52.178;21.176;2023-02-08T11:05:52;2.55;63.79
76897;SHT30;65856;52.178;21.176;2023-02-08T11:08:23;2.54;63.26
76897;SHT30;65856;52.178;21.176;2023-02-08T11:10:58;2.51;63.03
76897;SHT30;65856;52.178;21.176;2023-02-08T11:13:33;2.51;62.94
76897;SHT30;65856;52.178;21.176;2023-02-08T11:16:08;2.52;62.45
76897;SHT30;65856;52.178;21.176;2023-02-08T11:18:50;2.55;62.48
76897;SHT30;65856;52.178;21.176;2023-02-08T11:21:24;2.55;61.99
76897;SHT30;65856;52.178;21.176;2023-02-08T11:23:59;2.57;61.74
76897;SHT30;65856;52.178;21.176;2023-02-08T11:26:52;2.58;61.42
76897;SHT30;65856;52.178;21.176;2023-02-08T11:29:24;2.63;61.60
76897;SHT30;65856;52.178;21.176;2023-02-08T11:31:58;2.67;61.17
76897;SHT30;65856;52.178;21.176;2023-02-08T11:34:40;2.73;61.33
76897;SHT30;65856;52.178;21.176;2023-02-08T11:37:14;2.79;61.36
76897;SHT30;65856;52.178;21.176;2023-02-08T11:39:52;2.86;61.34
76897;SHT30;65856;52.178;21.176;2023-02-08T11:42:26;2.91;61.26
76897;SHT30;65856;52.178;21.176;2023-02-08T11:45:01;2.97;61.05
76897;SHT30;65856;52.178;21.176;2023-02-08T11:47:34;2.99;60.20
76897;SHT30;65856;52.178;21.176;2023-02-08T11:50:06;2.97;60.08
76897;SHT30;65856;52.178;21.176;2023-02-08T11:52:52;2.99;60.40
76897;SHT30;65856;52.178;21.176;2023-02-08T11:55:28;3.02;60.49
76897;SHT30;65856;52.178;21.176;2023-02-08T11:58:00;3.03;59.90
76897;SHT30;65856;52.178;21.176;2023-02-08T12:00:56;3.02;59.97
76897;SHT30;65856;52.178;21.176;2023-02-08T12:03:30;3.05;60.21
76897;SHT30;65856;52.178;21.176;2023-02-08T12:06:10;3.07;59.89
76897;SHT30;65856;52.178;21.176;2023-02-08T12:08:58;3.08;59.76
76897;SHT30;65856;52.178;21.176;2023-02-08T12:11:43;3.10;59.64
76897;SHT30;65856;52.178;21.176;2023-02-08T12:14:21;3.12;59.29
76897;SHT30;65856;52.178;21.176;2023-02-08T12:17:26;3.07;58.19
76897;SHT30;65856;52.178;21.176;2023-02-08T12:26:16;3.04;58.54
76897;SHT30;65856;52.178;21.176;2023-02-08T12:29:05;3.02;58.05
76897;SHT30;65856;52.178;21.176;2023-02-08T12:31:51;3.01;58.03
76897;SHT30;65856;52.178;21.176;2023-02-08T12:34:42;2.99;58.01
76897;SHT30;65856;52.178;21.176;2023-02-08T12:37:33;3.02;58.20
76897;SHT30;65856;52.178;21.176;2023-02-08T12:40:33;3.05;58.40
76897;SHT30;65856;52.178;21.176;2023-02-08T12:43:18;3.08;58.12
76897;SHT30;65856;52.178;21.176;2023-02-08T12:46:07;3.10;58.49
76897;SHT30;65856;52.178;21.176;2023-02-08T12:49:03;3.16;58.77
76897;SHT30;65856;52.178;21.176;2023-02-08T12:51:55;3.23;58.80
76897;SHT30;65856;52.178;21.176;2023-02-08T12:54:39;3.29;58.63
76897;SHT30;65856;52.178;21.176;2023-02-08T12:57:17;3.33;58.52
76897;SHT30;65856;52.178;21.176;2023-02-08T12:59:52;3.37;58.49
76897;SHT30;65856;52.178;21.176;2023-02-08T13:02:30;3.39;58.49
76897;SHT30;65856;52.178;21.176;2023-02-08T13:05:12;3.42;58.40
76897;SHT30;65856;52.178;21.176;2023-02-08T13:07:48;3.42;57.79
76897;SHT30;65856;52.178;21.176;2023-02-08T13:10:26;3.42;57.97
76897;SHT30;65856;52.178;21.176;2023-02-08T13:13:05;3.44;58.19
76897;SHT30;65856;52.178;21.176;2023-02-08T13:15:43;3.48;57.54
76897;SHT30;65856;52.178;21.176;2023-02-08T13:18:23;3.50;57.54
76897;SHT30;65856;52.178;21.176;2023-02-08T13:21:00;3.52;57.50
76897;SHT30;65856;52.178;21.176;2023-02-08T13:23:39;3.52;57.50
76897;SHT30;65856;52.178;21.176;2023-02-08T13:26:14;3.50;57.54
76897;SHT30;65856;52.178;21.176;2023-02-08T13:28:52;3.47;57.67
76897;SHT30;65856;52.178;21.176;2023-02-08T13:31:25;3.47;57.77
76897;SHT30;65856;52.178;21.176;2023-02-08T13:34:01;3.45;57.71
76897;SHT30;65856;52.178;21.176;2023-02-08T13:36:40;3.41;57.84
76897;SHT30;65856;52.178;21.176;2023-02-08T13:39:28;3.38;58.02
76897;SHT30;65856;52.178;21.176;2023-02-08T13:42:06;3.34;57.97
76897;SHT30;65856;52.178;21.176;2023-02-08T13:44:49;3.30;57.76
76897;SHT30;65856;52.178;21.176;2023-02-08T13:47:24;3.27;58.06
76897;SHT30;65856;52.178;21.176;2023-02-08T13:49:59;3.24;58.32
76897;SHT30;65856;52.178;21.176;2023-02-08T13:52:51;3.20;58.07
76897;SHT30;65856;52.178;21.176;2023-02-08T14:08:06;3.14;56.69
76897;SHT30;65856;52.178;21.176;2023-02-08T14:10:48;3.11;56.24
76897;SHT30;65856;52.178;21.176;2023-02-08T14:13:35;3.06;56.34
76897;SHT30;65856;52.178;21.176;2023-02-08T14:19:19;3.05;56.70
76897;SHT30;65856;52.178;21.176;2023-02-08T14:21:59;3.00;56.80
76897;SHT30;65856;52.178;21.176;2023-02-08T14:24:40;2.96;56.73
76897;SHT30;65856;52.178;21.176;2023-02-08T14:27:17;2.95;56.74
76897;SHT30;65856;52.178;21.176;2023-02-08T14:29:57;2.96;57.46
76897;SHT30;65856;52.178;21.176;2023-02-08T14:32:35;2.97;57.21
76897;SHT30;65856;52.178;21.176;2023-02-08T14:35:17;2.97;57.47
76897;SHT30;65856;52.178;21.176;2023-02-08T14:41:02;2.94;57.33
76897;SHT30;65856;52.178;21.176;2023-02-08T14:43:34;2.93;58.04
76897;SHT30;65856;52.178;21.176;2023-02-08T14:49:12;2.89;58.43
76897;SHT30;65856;52.178;21.176;2023-02-08T14:51:45;2.86;58.69
76897;SHT30;65856;52.178;21.176;2023-02-08T14:54:24;2.83;58.54
76897;SHT30;65856;52.178;21.176;2023-02-08T14:57:03;2.77;58.30
76897;SHT30;65856;52.178;21.176;2023-02-08T14:59:47;2.73;58.69
76897;SHT30;65856;52.178;21.176;2023-02-08T15:02:20;2.70;58.97
76897;SHT30;65856;52.178;21.176;2023-02-08T15:04:56;2.68;58.89
76897;SHT30;65856;52.178;21.176;2023-02-08T15:07:29;2.63;58.80
76897;SHT30;65856;52.178;21.176;2023-02-08T15:10:10;2.59;58.86
76897;SHT30;65856;52.178;21.176;2023-02-08T15:12:44;2.57;59.01
76897;SHT30;65856;52.178;21.176;2023-02-08T15:15:22;2.54;59.02
76897;SHT30;65856;52.178;21.176;2023-02-08T15:17:56;2.50;59.09
76897;SHT30;65856;52.178;21.176;2023-02-08T15:20:28;2.39;59.35
76897;SHT30;65856;52.178;21.176;2023-02-08T15:23:02;2.26;59.95
76897;SHT30;65856;52.178;21.176;2023-02-08T15:25:52;2.15;60.48
76897;SHT30;65856;52.178;21.176;2023-02-08T15:28:26;2.03;60.37
76897;SHT30;65856;52.178;21.176;2023-02-08T15:31:01;1.98;60.14
76897;SHT30;65856;52.178;21.176;2023-02-08T15:33:37;1.91;61.27
76897;SHT30;65856;52.178;21.176;2023-02-08T15:36:13;1.85;61.82
76897;SHT30;65856;52.178;21.176;2023-02-08T15:38:47;1.80;62.12
76897;SHT30;65856;52.178;21.176;2023-02-08T15:41:24;1.74;62.18
76897;SHT30;65856;52.178;21.176;2023-02-08T15:44:01;1.70;62.79
76897;SHT30;65856;52.178;21.176;2023-02-08T15:46:43;1.62;63.04
76897;SHT30;65856;52.178;21.176;2023-02-08T15:49:19;1.54;62.93
76897;SHT30;65856;52.178;21.176;2023-02-08T15:51:56;1.50;62.94
76897;SHT30;65856;52.178;21.176;2023-02-08T15:54:28;1.42;63.18
76897;SHT30;65856;52.178;21.176;2023-02-08T15:56:59;1.30;63.06
76897;SHT30;65856;52.178;21.176;2023-02-08T15:59:36;1.19;63.26
76897;SHT30;65856;52.178;21.176;2023-02-08T16:02:23;1.14;63.37
76897;SHT30;65856;52.178;21.176;2023-02-08T16:04:58;1.05;63.73
76897;SHT30;65856;52.178;21.176;2023-02-08T16:07:38;0.95;63.79
76897;SHT30;65856;52.178;21.176;2023-02-08T16:10:18;0.91;64.00
76897;SHT30;65856;52.178;21.176;2023-02-08T16:12:57;0.87;64.12
76897;SHT30;65856;52.178;21.176;2023-02-08T16:15:35;0.86;64.28
76897;SHT30;65856;52.178;21.176;2023-02-08T16:21:17;0.84;64.37
76897;SHT30;65856;52.178;21.176;2023-02-08T16:23:55;0.79;64.26
76897;SHT30;65856;52.178;21.176;2023-02-08T16:26:32;0.68;64.25
76897;SHT30;65856;52.178;21.176;2023-02-08T16:29:15;0.60;64.45
76897;SHT30;65856;52.178;21.176;2023-02-08T16:31:55;0.52;64.58
76897;SHT30;65856;52.178;21.176;2023-02-08T16:34:29;0.49;64.74
76897;SHT30;65856;52.178;21.176;2023-02-08T16:37:03;0.46;64.86
76897;SHT30;65856;52.178;21.176;2023-02-08T16:39:52;0.40;65.01
76897;SHT30;65856;52.178;21.176;2023-02-08T16:42:28;0.37;65.00
76897;SHT30;65856;52.178;21.176;2023-02-08T16:47:58;0.27;65.33
76897;SHT30;65856;52.178;21.176;2023-02-08T16:50:28;0.22;65.48
76897;SHT30;65856;52.178;21.176;2023-02-08T16:53:00;0.19;65.72
76897;SHT30;65856;52.178;21.176;2023-02-08T16:55:32;0.13;65.84
76897;SHT30;65856;52.178;21.176;2023-02-08T16:58:04;0.07;66.06
76897;SHT30;65856;52.178;21.176;2023-02-08T17:00:41;0.03;66.20
76897;SHT30;65856;52.178;21.176;2023-02-08T17:03:12;-0.01;66.12
76897;SHT30;65856;52.178;21.176;2023-02-08T17:05:42;-0.09;66.02